createdAt,value
2019-03-09T00:01:12.345Z,68.22
2019-03-09T00:03:41.665Z,67.90
2019-03-09T00:06:10.998Z,68.34
2019-03-09T00:08:40.322Z,68.57
2019-03-09T00:11:09.644Z,68.88
2019-03-09T00:13:40.931Z,69.44
2019-03-09T00:16:10.252Z,70.18
2019-03-09T00:18:39.576Z,71.26
2019-03-09T00:21:09.052Z,71.81
2019-03-09T00:23:40.016Z,72.52
2019-03-09T00:26:20.279Z,73.05
2019-03-09T00:28:57.438Z,74.46
2019-03-09T00:31:31.124Z,73.95
2019-03-09T00:34:00.512Z,73.91
2019-03-09T00:36:30.157Z,74.39
2019-03-09T00:38:59.480Z,75.15
2019-03-09T00:41:28.987Z,75.41
2019-03-09T00:43:58.379Z,76.71
2019-03-09T00:46:27.705Z,76.89
2019-03-09T00:48:57.025Z,78.20
2019-03-09T00:51:26.387Z,78.78
2019-03-09T00:53:55.952Z,80.25
2019-03-09T00:56:25.281Z,79.57
2019-03-09T00:58:54.613Z,80.85
2019-03-09T01:01:23.939Z,81.30
2019-03-09T01:03:53.265Z,81.58
2019-03-09T01:06:22.606Z,81.65
2019-03-09T01:08:51.928Z,82.32
2019-03-09T01:11:21.257Z,82.33
2019-03-09T01:13:50.582Z,82.54
2019-03-09T01:16:19.909Z,82.46
2019-03-09T01:18:49.239Z,82.70
2019-03-09T01:21:18.576Z,82.26
2019-03-09T01:23:47.903Z,83.28
2019-03-09T01:26:18.942Z,82.61
2019-03-09T01:28:48.267Z,83.49
2019-03-09T01:31:17.596Z,83.44
2019-03-09T01:33:47.017Z,83.84
2019-03-09T01:36:16.432Z,83.69
2019-03-09T01:38:45.788Z,84.12
2019-03-09T01:41:15.075Z,84.37
2019-03-09T01:43:44.473Z,84.36
2019-03-09T01:46:13.803Z,84.89
2019-03-09T01:48:43.136Z,85.06
2019-03-09T01:51:12.458Z,84.80
2019-03-09T01:53:41.784Z,85.24
2019-03-09T01:56:11.179Z,85.27
2019-03-09T01:58:40.575Z,85.21
2019-03-09T02:01:09.886Z,85.55
2019-03-09T02:03:39.220Z,86.11
2019-03-09T02:06:08.546Z,85.51
2019-03-09T02:08:38.217Z,85.44
2019-03-09T02:11:07.520Z,85.71
2019-03-09T02:13:37.207Z,85.74
2019-03-09T02:16:06.544Z,85.34
2019-03-09T02:18:35.871Z,85.34
2019-03-09T02:21:05.192Z,85.98
2019-03-09T02:23:34.528Z,86.08
2019-03-09T02:26:03.854Z,86.48
2019-03-09T02:28:33.183Z,86.33
2019-03-09T02:31:02.530Z,86.50
2019-03-09T02:33:31.838Z,86.55
2019-03-09T02:36:01.163Z,86.66
2019-03-09T02:38:32.132Z,86.65
2019-03-09T02:41:01.453Z,86.73
2019-03-09T02:43:31.848Z,87.01
2019-03-09T02:46:01.522Z,87.12
2019-03-09T02:48:30.825Z,87.57
2019-03-09T02:51:01.124Z,87.31
2019-03-09T02:53:30.461Z,87.49
2019-03-09T02:56:04.939Z,87.54
2019-03-09T02:58:34.256Z,87.56
2019-03-09T03:01:05.238Z,87.47
2019-03-09T03:03:35.526Z,87.94
2019-03-09T03:06:04.849Z,87.62
2019-03-09T03:08:34.185Z,87.87
2019-03-09T03:11:03.838Z,87.93
2019-03-09T03:13:33.210Z,87.91
2019-03-09T03:16:02.557Z,87.71
2019-03-09T03:18:32.857Z,87.81
2019-03-09T03:21:02.187Z,88.00
2019-03-09T03:23:32.472Z,87.81
2019-03-09T03:26:01.847Z,87.78
2019-03-09T03:28:31.153Z,88.27
2019-03-09T03:31:00.471Z,88.24
2019-03-09T03:33:29.821Z,88.26
2019-03-09T03:35:59.107Z,88.54
2019-03-09T03:38:28.427Z,88.36
2019-03-09T03:40:58.078Z,88.34
2019-03-09T03:43:27.783Z,88.45
2019-03-09T03:45:57.083Z,88.40
2019-03-09T03:48:26.428Z,88.54
2019-03-09T03:50:55.768Z,88.54
2019-03-09T03:53:25.090Z,88.60
2019-03-09T03:55:54.607Z,88.74
2019-03-09T03:58:23.940Z,88.70
2019-03-09T04:00:53.560Z,88.92
2019-03-09T04:03:23.857Z,89.01
2019-03-09T04:05:53.417Z,89.09
2019-03-09T04:08:22.742Z,89.04
2019-03-09T04:10:52.399Z,89.13
2019-03-09T04:13:21.716Z,89.26
2019-03-09T04:15:52.016Z,89.25
2019-03-09T04:18:21.404Z,89.23
2019-03-09T04:20:50.734Z,89.24
2019-03-09T04:23:20.074Z,89.33
2019-03-09T04:25:49.446Z,89.57
2019-03-09T04:28:18.786Z,89.69
2019-03-09T04:30:48.149Z,89.74
2019-03-09T04:33:17.596Z,89.82
2019-03-09T04:35:46.917Z,89.70
2019-03-09T04:38:16.233Z,89.71
2019-03-09T04:40:45.584Z,89.69
2019-03-09T04:43:14.900Z,89.45
2019-03-09T04:45:44.227Z,89.46
2019-03-09T04:48:13.543Z,89.32
2019-03-09T04:50:43.382Z,89.14
2019-03-09T04:53:12.698Z,89.10
2019-03-09T04:55:42.042Z,88.59
2019-03-09T04:58:11.367Z,88.60
2019-03-09T05:00:40.984Z,88.48
2019-03-09T05:03:10.307Z,88.20
2019-03-09T05:05:39.705Z,88.04
2019-03-09T05:08:12.077Z,87.91
2019-03-09T05:10:47.545Z,87.92
2019-03-09T05:13:26.700Z,87.56
2019-03-09T05:15:56.025Z,87.46
2019-03-09T05:18:25.375Z,87.59
2019-03-09T05:20:54.716Z,87.66
2019-03-09T05:23:24.061Z,87.43
2019-03-09T05:25:53.381Z,87.45
2019-03-09T05:28:22.956Z,87.41
2019-03-09T05:30:52.282Z,87.32
2019-03-09T05:33:21.628Z,87.30
2019-03-09T05:35:50.958Z,86.98
2019-03-09T05:38:20.287Z,86.93
2019-03-09T05:40:49.607Z,86.80
2019-03-09T05:43:19.289Z,86.72
2019-03-09T05:45:48.638Z,86.82
2019-03-09T05:48:17.979Z,86.89
2019-03-09T05:50:47.336Z,86.96
2019-03-09T05:53:18.608Z,87.14
2019-03-09T05:55:47.940Z,86.90
2019-03-09T05:58:17.284Z,87.09
2019-03-09T06:00:46.633Z,87.14
2019-03-09T06:03:15.988Z,87.34
2019-03-09T06:05:47.281Z,87.59
2019-03-09T06:08:16.710Z,87.63
2019-03-09T06:10:46.058Z,87.67
2019-03-09T06:13:15.451Z,87.68
2019-03-09T06:15:44.783Z,87.66
2019-03-09T06:18:14.114Z,87.71
2019-03-09T06:20:43.466Z,87.78
2019-03-09T06:23:12.799Z,87.80
2019-03-09T06:25:42.127Z,87.66
2019-03-09T06:28:12.447Z,87.91
2019-03-09T06:30:42.060Z,87.75
2019-03-09T06:33:23.363Z,87.85
2019-03-09T06:35:56.069Z,87.94
2019-03-09T06:38:44.685Z,87.79
2019-03-09T06:41:25.869Z,87.70
2019-03-09T06:43:55.226Z,87.79
2019-03-09T06:46:24.557Z,87.74
2019-03-09T06:48:53.882Z,87.65
2019-03-09T06:51:23.220Z,87.50
2019-03-09T06:53:52.555Z,87.42
2019-03-09T06:56:21.906Z,87.40
2019-03-09T06:58:51.472Z,87.48
2019-03-09T07:01:22.607Z,87.49
2019-03-09T07:03:51.958Z,87.24
2019-03-09T07:06:21.359Z,87.09
2019-03-09T07:08:50.720Z,87.04
2019-03-09T07:11:20.073Z,86.83
2019-03-09T07:13:53.188Z,86.89
2019-03-09T07:16:20.774Z,86.87
2019-03-09T07:18:50.126Z,86.68
2019-03-09T07:21:19.460Z,86.58
2019-03-09T07:23:48.808Z,86.11
2019-03-09T07:26:19.415Z,86.23
2019-03-09T07:28:48.746Z,86.22
2019-03-09T07:31:18.383Z,86.25
2019-03-09T07:33:47.711Z,86.04
2019-03-09T07:36:17.068Z,86.14
2019-03-09T07:38:46.415Z,86.16
2019-03-09T07:41:16.009Z,85.78
2019-03-09T07:43:45.379Z,85.86
2019-03-09T07:46:15.066Z,85.51
2019-03-09T07:48:44.414Z,85.41
2019-03-09T07:51:14.077Z,85.39
2019-03-09T07:53:43.431Z,84.80
2019-03-09T07:56:12.762Z,84.05
2019-03-09T07:58:42.096Z,84.23
2019-03-09T08:01:11.432Z,84.21
2019-03-09T08:03:40.819Z,83.44
2019-03-09T08:06:10.167Z,83.56
2019-03-09T08:08:40.641Z,82.91
2019-03-09T08:11:09.979Z,82.86
2019-03-09T08:13:39.312Z,82.50
2019-03-09T08:16:08.645Z,82.58
2019-03-09T08:18:38.043Z,82.63
2019-03-09T08:21:07.381Z,82.84
2019-03-09T08:23:36.703Z,82.78
2019-03-09T08:26:06.032Z,82.95
2019-03-09T08:28:35.371Z,82.68
2019-03-09T08:31:04.940Z,82.87
2019-03-09T08:33:35.856Z,82.88
2019-03-09T08:36:05.484Z,82.76
2019-03-09T08:38:35.213Z,83.05
2019-03-09T08:41:04.601Z,82.08
2019-03-09T08:43:33.891Z,81.83
2019-03-09T08:46:03.351Z,82.15
2019-03-09T08:48:32.655Z,81.46
2019-03-09T08:51:02.045Z,81.51
2019-03-09T08:53:31.488Z,81.61
2019-03-09T08:56:00.792Z,81.63
2019-03-09T08:58:30.103Z,81.35
2019-03-09T09:00:59.420Z,80.87
2019-03-09T09:03:28.986Z,80.46
2019-03-09T09:05:58.313Z,80.61
2019-03-09T09:08:27.664Z,80.57
2019-03-09T09:10:56.972Z,79.59
2019-03-09T09:13:26.551Z,79.39
2019-03-09T09:15:55.893Z,79.87
2019-03-09T09:18:25.451Z,79.66
2019-03-09T09:20:54.780Z,79.50
2019-03-09T09:23:24.383Z,79.13
2019-03-09T09:25:53.710Z,78.96
2019-03-09T09:28:23.261Z,78.16
2019-03-09T09:30:52.584Z,78.56
2019-03-09T09:33:21.942Z,77.67
2019-03-09T09:35:51.281Z,77.71
2019-03-09T09:38:20.605Z,78.09
2019-03-09T09:40:50.178Z,77.70
2019-03-09T09:43:19.499Z,77.01
2019-03-09T09:45:49.074Z,77.21
2019-03-09T09:48:18.412Z,77.28
2019-03-09T09:50:47.738Z,76.18
2019-03-09T09:53:17.097Z,76.04
2019-03-09T09:55:46.439Z,76.48
2019-03-09T09:58:15.771Z,76.41
2019-03-09T10:00:45.134Z,76.37
2019-03-09T10:03:14.467Z,75.44
2019-03-09T10:05:44.041Z,75.23
2019-03-09T10:08:13.366Z,75.27
2019-03-09T10:10:42.946Z,75.37
2019-03-09T10:13:12.278Z,74.81
2019-03-09T10:15:41.627Z,75.04
2019-03-09T10:18:10.974Z,75.18
2019-03-09T10:20:40.572Z,75.35
2019-03-09T10:23:09.904Z,75.43
2019-03-09T10:25:39.494Z,75.08
2019-03-09T10:28:09.049Z,75.06
2019-03-09T10:30:38.382Z,75.11
2019-03-09T10:33:07.801Z,75.61
2019-03-09T10:35:37.126Z,75.53
2019-03-09T10:38:06.463Z,75.07
2019-03-09T10:40:36.096Z,75.30
2019-03-09T10:43:05.493Z,75.40
2019-03-09T10:45:37.786Z,74.43
2019-03-09T10:48:07.183Z,74.34
2019-03-09T10:50:36.851Z,73.66
2019-03-09T10:53:06.755Z,73.09
2019-03-09T10:55:36.363Z,72.99
2019-03-09T10:58:06.143Z,71.91
2019-03-09T11:00:37.052Z,72.25
2019-03-09T11:03:06.447Z,71.43
2019-03-09T11:05:35.876Z,70.94
2019-03-09T11:08:05.535Z,70.27
2019-03-09T11:10:34.878Z,70.30
2019-03-09T11:13:04.215Z,70.77
2019-03-09T11:15:34.332Z,70.40
2019-03-09T11:18:03.701Z,70.08
2019-03-09T11:20:33.120Z,70.61
2019-03-09T11:23:02.781Z,70.92
2019-03-09T11:25:32.113Z,70.80
2019-03-09T11:28:07.324Z,69.67
2019-03-09T11:30:36.891Z,69.99
2019-03-09T11:33:06.309Z,69.48
2019-03-09T11:35:35.882Z,68.70
2019-03-09T11:38:05.530Z,69.72
2019-03-09T11:40:34.943Z,69.00
2019-03-09T11:43:04.436Z,69.27
2019-03-09T11:45:34.053Z,68.48
2019-03-09T11:48:03.390Z,67.92
2019-03-09T11:50:32.741Z,68.32
2019-03-09T11:53:02.182Z,65.92
2019-03-09T11:55:31.519Z,65.95
2019-03-09T11:58:00.851Z,66.00
2019-03-09T12:00:32.098Z,66.25
2019-03-09T12:03:01.459Z,64.24
2019-03-09T12:05:30.796Z,64.11
2019-03-09T12:08:00.162Z,64.03
2019-03-09T12:10:29.729Z,63.46
2019-03-09T12:12:59.162Z,62.47
2019-03-09T12:15:28.558Z,62.80
2019-03-09T12:17:58.877Z,62.66
2019-03-09T12:20:29.841Z,63.00
2019-03-09T12:23:17.206Z,61.56
2019-03-09T12:25:46.552Z,60.74
2019-03-09T12:28:16.923Z,59.21
2019-03-09T12:30:46.303Z,58.00
2019-03-09T12:33:15.642Z,57.93
2019-03-09T12:35:45.534Z,58.15
2019-03-09T12:38:14.866Z,57.33
2019-03-09T12:40:44.241Z,57.37
2019-03-09T12:43:13.571Z,58.11
2019-03-09T12:45:42.906Z,58.24
2019-03-09T12:48:12.243Z,58.21
2019-03-09T12:50:41.734Z,57.54
2019-03-09T12:53:11.414Z,57.49
2019-03-09T12:55:40.985Z,57.83
2019-03-09T12:58:10.399Z,57.93
2019-03-09T13:00:39.750Z,58.30
2019-03-09T13:03:09.110Z,57.39
2019-03-09T13:05:38.464Z,57.57
2019-03-09T13:08:07.829Z,58.41
2019-03-09T13:10:37.233Z,56.48
2019-03-09T13:13:06.640Z,57.53
2019-03-09T13:15:36.062Z,56.94
2019-03-09T13:18:05.612Z,59.17
2019-03-09T13:20:34.950Z,61.53
2019-03-09T13:23:04.552Z,64.35
2019-03-09T13:25:34.148Z,67.56
2019-03-09T13:28:03.479Z,69.31
2019-03-09T13:30:32.833Z,70.70
2019-03-09T13:33:02.218Z,69.48
2019-03-09T13:35:31.512Z,69.82
2019-03-09T13:38:00.844Z,70.12
2019-03-09T13:40:30.247Z,70.99
2019-03-09T13:42:59.819Z,70.83
2019-03-09T13:45:29.154Z,72.80
2019-03-09T13:47:58.750Z,72.58
2019-03-09T13:50:28.078Z,72.00
2019-03-09T13:52:57.417Z,70.96
2019-03-09T13:55:26.751Z,71.90
2019-03-09T13:57:56.346Z,72.16
2019-03-09T14:00:25.741Z,71.55
2019-03-09T14:02:55.111Z,71.66
2019-03-09T14:05:24.734Z,71.23
2019-03-09T14:07:54.076Z,72.66
2019-03-09T14:10:23.442Z,73.66
2019-03-09T14:12:53.088Z,75.32
2019-03-09T14:15:22.433Z,76.22
2019-03-09T14:17:53.032Z,78.79
2019-03-09T14:20:22.379Z,79.89
2019-03-09T14:22:51.718Z,80.84
2019-03-09T14:25:21.052Z,82.24
2019-03-09T14:27:50.669Z,83.46
2019-03-09T14:30:20.341Z,84.35
2019-03-09T14:32:49.926Z,83.68
2019-03-09T14:35:19.258Z,82.87
2019-03-09T14:37:48.590Z,83.07
2019-03-09T14:40:17.996Z,82.79
2019-03-09T14:42:47.324Z,83.89
2019-03-09T14:45:24.052Z,83.21
2019-03-09T14:47:53.638Z,84.37
2019-03-09T14:50:22.963Z,84.30
2019-03-09T14:52:52.318Z,83.59
2019-03-09T14:55:21.963Z,82.53
2019-03-09T14:57:51.300Z,82.85
2019-03-09T15:00:22.782Z,82.45
2019-03-09T15:02:52.124Z,81.89
2019-03-09T15:05:21.449Z,81.81
2019-03-09T15:07:50.777Z,81.10
2019-03-09T15:10:20.133Z,79.35
2019-03-09T15:12:49.691Z,78.48
2019-03-09T15:15:20.357Z,78.53
2019-03-09T15:17:49.681Z,77.34
2019-03-09T15:20:19.273Z,77.90
2019-03-09T15:22:48.597Z,77.62
2019-03-09T15:25:19.171Z,75.77
2019-03-09T15:27:48.900Z,77.00
2019-03-09T15:30:19.071Z,77.42
2019-03-09T15:32:48.404Z,76.92
2019-03-09T15:35:18.190Z,77.68
2019-03-09T15:37:47.811Z,77.20
2019-03-09T15:40:18.286Z,75.35
2019-03-09T15:42:47.977Z,74.93
2019-03-09T15:45:19.458Z,71.62
2019-03-09T15:47:48.798Z,70.41
2019-03-09T15:50:22.163Z,69.04
2019-03-09T15:52:51.514Z,69.03
2019-03-09T15:55:20.871Z,68.50
2019-03-09T15:57:50.313Z,66.44
2019-03-09T16:00:23.808Z,66.20
2019-03-09T16:02:53.206Z,65.95
2019-03-09T16:05:22.557Z,65.24
2019-03-09T16:07:51.902Z,66.63
2019-03-09T16:10:22.183Z,66.91
2019-03-09T16:12:51.501Z,68.17
2019-03-09T16:15:20.830Z,69.71
2019-03-09T16:17:50.196Z,73.24
2019-03-09T16:20:28.518Z,75.48
2019-03-09T16:22:57.918Z,75.09
2019-03-09T16:25:28.809Z,74.29
2019-03-09T16:27:58.410Z,73.35
2019-03-09T16:30:27.740Z,74.04
2019-03-09T16:32:57.058Z,73.77
2019-03-09T16:35:26.439Z,73.28
2019-03-09T16:37:55.717Z,72.39
2019-03-09T16:40:26.581Z,73.52
2019-03-09T16:42:56.204Z,72.76
2019-03-09T16:45:25.534Z,70.68
2019-03-09T16:47:54.846Z,70.59
2019-03-09T16:50:24.205Z,70.88
2019-03-09T16:52:53.642Z,69.74
2019-03-09T16:55:22.971Z,70.58
2019-03-09T16:57:52.295Z,70.15
2019-03-09T17:00:22.763Z,69.67
2019-03-09T17:02:52.086Z,69.90
2019-03-09T17:05:21.433Z,69.37
2019-03-09T17:07:50.763Z,69.74
2019-03-09T17:10:20.157Z,69.72
2019-03-09T17:12:49.495Z,69.29
2019-03-09T17:15:22.102Z,69.09
2019-03-09T17:17:51.711Z,69.59
2019-03-09T17:20:21.014Z,70.01
2019-03-09T17:22:50.346Z,69.79
2019-03-09T17:25:19.674Z,69.44
2019-03-09T17:27:49.076Z,69.21
2019-03-09T17:30:19.775Z,69.83
2019-03-09T17:32:49.173Z,69.76
2019-03-09T17:35:18.506Z,70.25
2019-03-09T17:37:47.832Z,69.97
2019-03-09T17:40:17.741Z,70.52
2019-03-09T17:42:47.391Z,70.25
2019-03-09T17:45:19.552Z,70.27
2019-03-09T17:47:48.937Z,69.88
2019-03-09T17:50:18.263Z,69.82
2019-03-09T17:52:47.617Z,69.78
2019-03-09T17:55:16.945Z,70.38
2019-03-09T17:57:46.300Z,69.93
2019-03-09T18:00:27.668Z,70.03
2019-03-09T18:02:57.019Z,70.70
2019-03-09T18:05:26.348Z,70.94
2019-03-09T18:07:55.909Z,70.49
2019-03-09T18:10:46.113Z,70.87
2019-03-09T18:13:15.675Z,70.99
2019-03-09T18:15:45.003Z,71.22
2019-03-09T18:18:14.974Z,71.01
2019-03-09T18:20:44.547Z,70.83
2019-03-09T18:23:14.135Z,71.29
2019-03-09T18:25:43.502Z,71.65
2019-03-09T18:28:12.811Z,71.22
2019-03-09T18:30:42.134Z,71.61
2019-03-09T18:33:11.500Z,71.63
2019-03-09T18:35:41.787Z,71.52
2019-03-09T18:38:11.256Z,71.60
2019-03-09T18:40:40.844Z,71.11
2019-03-09T18:43:10.197Z,71.17
2019-03-09T18:45:39.515Z,71.09
2019-03-09T18:48:09.138Z,71.30
2019-03-09T18:50:38.465Z,70.84
2019-03-09T18:53:08.190Z,70.56
2019-03-09T18:55:37.516Z,70.42
2019-03-09T18:58:06.912Z,70.12
2019-03-09T19:00:36.243Z,69.84
2019-03-09T19:03:05.665Z,70.62
2019-03-09T19:05:35.082Z,70.20
2019-03-09T19:08:04.412Z,70.09
2019-03-09T19:10:33.902Z,70.11
2019-03-09T19:13:03.302Z,69.99
2019-03-09T19:15:33.612Z,69.99
2019-03-09T19:18:02.934Z,70.13
2019-03-09T19:20:32.271Z,70.14
2019-03-09T19:23:01.603Z,70.24
2019-03-09T19:25:30.962Z,70.52
2019-03-09T19:28:00.292Z,70.31
2019-03-09T19:30:29.885Z,70.26
2019-03-09T19:33:00.689Z,70.49
2019-03-09T19:35:30.125Z,70.38
2019-03-09T19:37:59.477Z,70.04
2019-03-09T19:40:29.040Z,70.85
2019-03-09T19:42:58.375Z,70.03
2019-03-09T19:45:27.719Z,70.18
2019-03-09T19:47:57.387Z,69.95
2019-03-09T19:50:27.964Z,69.20
2019-03-09T19:52:59.073Z,69.08
2019-03-09T19:55:28.362Z,69.03
2019-03-09T19:57:57.697Z,69.28
2019-03-09T20:00:27.360Z,69.63
2019-03-09T20:02:56.694Z,69.98
2019-03-09T20:05:26.034Z,69.39
2019-03-09T20:07:55.434Z,68.85
2019-03-09T20:10:24.772Z,68.87
2019-03-09T20:12:54.157Z,69.00
2019-03-09T20:15:23.818Z,68.60
2019-03-09T20:17:53.191Z,68.10
2019-03-09T20:20:22.609Z,68.65
2019-03-09T20:22:52.308Z,68.50
2019-03-09T20:25:21.641Z,68.77
2019-03-09T20:27:51.214Z,68.41
2019-03-09T20:30:21.607Z,68.41
2019-03-09T20:32:51.005Z,69.00
2019-03-09T20:35:20.349Z,69.02
2019-03-09T20:37:49.809Z,69.03
2019-03-09T20:40:19.213Z,68.53
2019-03-09T20:42:48.607Z,68.61
2019-03-09T20:45:22.315Z,69.63
2019-03-09T20:47:50.912Z,69.31
2019-03-09T20:50:24.013Z,69.81
2019-03-09T20:52:56.243Z,69.10
2019-03-09T20:55:25.568Z,69.77
2019-03-09T20:57:55.209Z,70.32
2019-03-09T21:00:24.808Z,69.64
2019-03-09T21:02:54.173Z,69.85
2019-03-09T21:05:23.528Z,70.09
2019-03-09T21:07:52.904Z,69.74
2019-03-09T21:10:22.192Z,69.62
2019-03-09T21:13:02.896Z,69.27
2019-03-09T21:15:32.347Z,68.54
2019-03-09T21:18:01.962Z,68.89
2019-03-09T21:20:32.673Z,67.92
2019-03-09T21:23:02.097Z,67.44
2019-03-09T21:25:31.488Z,67.23
2019-03-09T21:28:00.815Z,67.29
2019-03-09T21:30:30.422Z,67.56
2019-03-09T21:33:00.040Z,68.17
2019-03-09T21:35:29.304Z,67.69
2019-03-09T21:37:58.697Z,66.80
2019-03-09T21:40:28.044Z,66.12
2019-03-09T21:42:57.614Z,65.97
2019-03-09T21:45:27.159Z,66.87
2019-03-09T21:47:56.532Z,66.73
2019-03-09T21:50:25.866Z,67.48
2019-03-09T21:52:55.261Z,65.99
2019-03-09T21:55:24.598Z,65.85
2019-03-09T21:57:54.169Z,66.02
2019-03-09T22:00:23.899Z,65.91
2019-03-09T22:02:53.244Z,66.10
2019-03-09T22:05:22.593Z,65.72
2019-03-09T22:07:51.980Z,65.97
2019-03-09T22:10:21.308Z,65.82
2019-03-09T22:12:50.643Z,65.74
2019-03-09T22:15:19.975Z,66.37
2019-03-09T22:17:49.302Z,66.21
2019-03-09T22:20:20.703Z,66.26
2019-03-09T22:22:51.317Z,65.64
2019-03-09T22:25:20.681Z,66.35
2019-03-09T22:27:50.013Z,65.93
2019-03-09T22:30:20.889Z,65.34
2019-03-09T22:32:50.481Z,66.65
2019-03-09T22:35:19.951Z,66.13
2019-03-09T22:37:49.315Z,66.33
2019-03-09T22:40:19.781Z,66.99
2019-03-09T22:42:49.245Z,66.63
2019-03-09T22:45:18.584Z,65.92
2019-03-09T22:47:47.929Z,66.56
2019-03-09T22:50:21.024Z,66.24
2019-03-09T22:52:50.346Z,66.53
2019-03-09T22:55:19.920Z,66.80
2019-03-09T22:57:49.323Z,66.09
2019-03-09T23:00:23.417Z,66.11
2019-03-09T23:02:54.704Z,66.46
2019-03-09T23:05:24.098Z,65.69
2019-03-09T23:07:53.894Z,65.64
2019-03-09T23:10:25.704Z,65.53
2019-03-09T23:12:55.049Z,64.90
2019-03-09T23:15:24.397Z,65.21
2019-03-09T23:17:54.893Z,64.75
2019-03-09T23:20:24.224Z,64.58
2019-03-09T23:22:53.573Z,64.90
2019-03-09T23:25:22.974Z,64.76
2019-03-09T23:27:52.303Z,65.11
2019-03-09T23:30:23.434Z,65.89
2019-03-09T23:32:53.155Z,65.97
2019-03-09T23:35:22.483Z,66.21
2019-03-09T23:37:51.871Z,66.47
2019-03-09T23:40:23.048Z,66.52
2019-03-09T23:42:52.383Z,67.09
2019-03-09T23:45:23.364Z,67.28
2019-03-09T23:47:52.771Z,67.58
2019-03-09T23:50:22.232Z,67.81
2019-03-09T23:52:51.643Z,67.84
2019-03-09T23:55:23.178Z,68.36
2019-03-09T23:57:52.542Z,68.01
